Time;durP1;ratioP1;P1;durP2;ratioP2;P2;SDS_P1;SDS_P2;PMS_P1;PMS_P2;Temp;Humidity;BMP_temperature;BMP_pressure;BME280_temperature;BME280_humidity;BME280_pressure;Samples;Min_cycle;Max_cycle;Signal;HPM_P1;HPM_P2
2022/11/27 00:01:24;;;;;;;11.75;2.50;;;;;;;4.89;100.00;102350.13;5114786;28;20027;-84
2022/11/27 00:03:50;;;;;;;14.45;2.60;;;;;;;4.85;100.00;102346.84;5114922;28;20051;-84
2022/11/27 00:06:19;;;;;;;16.42;1.95;;;;;;;4.81;100.00;102347.28;5115538;28;20028;-84
2022/11/27 00:08:45;;;;;;;14.63;2.60;;;;;;;4.81;100.00;102349.97;5115306;28;20154;-84
2022/11/27 00:11:20;;;;;;;9.13;2.57;;;;;;;4.77;100.00;102348.53;5114630;28;20027;-83
2022/11/27 00:13:47;;;;;;;11.95;2.13;;;;;;;4.78;100.00;102350.25;5115291;28;20360;-84
2022/11/27 00:16:13;;;;;;;11.35;2.55;;;;;;;4.74;100.00;102347.00;5114181;28;20035;-84
2022/11/27 00:18:39;;;;;;;11.30;2.40;;;;;;;4.71;100.00;102347.25;5114422;28;20036;-84
2022/11/27 00:21:28;;;;;;;8.02;2.20;;;;;;;4.66;100.00;102342.28;5115371;28;20039;-84
2022/11/27 00:23:56;;;;;;;7.87;2.30;;;;;;;4.59;100.00;102327.72;5114071;28;20026;-84
2022/11/27 00:26:22;;;;;;;18.10;2.95;;;;;;;4.53;100.00;102325.59;5113980;28;20042;-84
2022/11/27 00:28:48;;;;;;;14.75;3.10;;;;;;;4.49;100.00;102327.72;5114059;28;20036;-84
2022/11/27 00:31:15;;;;;;;15.05;3.00;;;;;;;4.47;100.00;102332.34;5115558;27;20056;-84
2022/11/27 00:33:40;;;;;;;16.17;3.17;;;;;;;4.42;100.00;102323.03;5114162;28;20034;-83
2022/11/27 00:36:07;;;;;;;13.83;3.17;;;;;;;4.39;100.00;102316.94;5114994;28;20031;-84
2022/11/27 00:38:33;;;;;;;13.95;3.28;;;;;;;4.38;100.00;102317.06;5114303;28;20118;-84
2022/11/27 00:41:11;;;;;;;14.55;2.95;;;;;;;4.36;100.00;102321.75;5113783;28;20031;-84
2022/11/27 00:43:37;;;;;;;16.23;3.07;;;;;;;4.35;100.00;102320.03;5114179;28;20490;-84
2022/11/27 00:46:03;;;;;;;12.68;3.25;;;;;;;4.36;100.00;102316.38;5115545;28;20039;-84
2022/11/27 00:48:29;;;;;;;11.32;2.88;;;;;;;4.39;100.00;102319.63;5113781;28;20027;-84
2022/11/27 00:51:15;;;;;;;10.40;3.27;;;;;;;4.41;100.00;102311.41;5096324;28;20062;-84
2022/11/27 00:53:42;;;;;;;14.18;3.15;;;;;;;4.40;100.00;102312.44;5113212;28;20269;-83
2022/11/27 00:56:09;;;;;;;16.35;3.35;;;;;;;4.39;100.00;102303.50;5113699;28;20027;-84
2022/11/27 00:58:35;;;;;;;11.63;2.97;;;;;;;4.37;100.00;102299.25;5113691;28;20024;-84
2022/11/27 01:01:04;;;;;;;11.50;2.90;;;;;;;4.35;100.00;102294.00;5114998;28;20038;-84
2022/11/27 01:03:30;;;;;;;12.98;2.92;;;;;;;4.32;100.00;102283.53;5113692;28;20413;-83
2022/11/27 01:06:00;;;;;;;17.00;3.28;;;;;;;4.31;100.00;102279.19;5113584;28;20032;-84
2022/11/27 01:08:26;;;;;;;19.58;3.58;;;;;;;4.32;100.00;102280.84;5113149;28;20032;-84
2022/11/27 01:10:55;;;;;;;16.50;3.40;;;;;;;4.39;100.00;102283.84;5113983;28;20027;-84
2022/11/27 01:13:30;;;;;;;17.17;3.45;;;;;;;4.29;100.00;102275.75;5113111;28;20028;-83
2022/11/27 01:16:06;;;;;;;19.17;4.13;;;;;;;4.24;100.00;102266.41;5113141;28;20535;-83
2022/11/27 01:18:33;;;;;;;17.92;3.42;;;;;;;4.20;100.00;102268.53;5113544;28;20085;-84
2022/11/27 01:20:59;;;;;;;14.60;3.42;;;;;;;4.17;100.00;102266.97;5113325;28;20452;-84
2022/11/27 01:23:25;;;;;;;17.00;3.60;;;;;;;4.20;100.00;102265.84;5114315;28;20069;-84
2022/11/27 01:25:52;;;;;;;16.88;3.78;;;;;;;4.22;100.00;102277.28;5113248;28;20032;-84
2022/11/27 01:28:18;;;;;;;13.13;3.28;;;;;;;4.27;100.00;102276.91;5113277;28;20038;-84
2022/11/27 01:30:44;;;;;;;15.18;3.85;;;;;;;4.32;100.00;102269.25;5096151;28;20124;-84
2022/11/27 01:33:09;;;;;;;14.90;3.50;;;;;;;4.36;100.00;102265.31;5096551;28;20126;-84
2022/11/27 01:35:35;;;;;;;12.87;3.20;;;;;;;4.34;100.00;102256.53;5096171;28;20164;-84
2022/11/27 01:38:00;;;;;;;15.57;3.93;;;;;;;4.38;100.00;102252.56;5095760;28;20369;-84
2022/11/27 01:40:25;;;;;;;13.27;3.37;;;;;;;4.39;100.00;102255.13;5112444;28;20038;-83
2022/11/27 01:42:51;;;;;;;12.95;3.22;;;;;;;4.41;100.00;102241.53;5079503;28;20825;-84
2022/11/27 01:45:18;;;;;;;15.80;3.23;;;;;;;4.41;100.00;102238.03;5112934;28;20028;-84
2022/11/27 01:47:51;;;;;;;14.02;3.88;;;;;;;4.38;100.00;102239.13;5113243;28;20380;-84
2022/11/27 01:50:34;;;;;;;17.60;3.65;;;;;;;4.41;100.00;102244.22;5112688;28;20048;-84
2022/11/27 01:53:13;;;;;;;15.07;3.25;;;;;;;4.37;100.00;102238.31;5113060;28;20115;-84
2022/11/27 01:55:44;;;;;;;15.27;3.60;;;;;;;4.36;100.00;102217.78;5112980;28;20117;-84
2022/11/27 01:58:14;;;;;;;15.48;3.42;;;;;;;4.31;100.00;102209.31;5112876;28;20118;-84
2022/11/27 02:00:39;;;;;;;18.20;3.30;;;;;;;4.26;100.00;102198.13;5114144;28;20031;-84
2022/11/27 02:03:05;;;;;;;16.90;4.00;;;;;;;4.20;100.00;102206.75;5096000;28;20084;-83
2022/11/27 02:05:30;;;;;;;15.20;3.90;;;;;;;4.15;100.00;102203.63;5114048;28;20517;-84
2022/11/27 02:07:59;;;;;;;16.65;3.75;;;;;;;4.13;100.00;102194.88;5118067;28;20092;-84
2022/11/27 02:10:40;;;;;;;16.50;3.67;;;;;;;4.09;100.00;102191.63;5116405;28;20020;-83
2022/11/27 02:13:13;;;;;;;19.93;4.30;;;;;;;4.04;100.00;102183.97;5117029;28;20390;-84
2022/11/27 02:15:47;;;;;;;12.73;3.80;;;;;;;4.00;100.00;102181.69;5118133;28;20106;-84
2022/11/27 02:18:31;;;;;;;17.20;5.20;;;;;;;3.99;100.00;102171.97;5117215;28;20118;-84
2022/11/27 02:21:01;;;;;;;15.00;3.88;;;;;;;3.93;100.00;102176.03;5118091;28;20053;-84
2022/11/27 02:23:54;;;;;;;14.27;4.43;;;;;;;3.99;100.00;102174.66;5116745;28;20047;-84
2022/11/27 02:26:38;;;;;;;13.80;3.57;;;;;;;3.98;100.00;102164.88;5118066;28;20031;-84
2022/11/27 02:29:06;;;;;;;13.00;4.00;;;;;;;3.92;100.00;102163.59;5116620;28;20023;-83
2022/11/27 02:32:01;;;;;;;15.35;3.75;;;;;;;3.90;100.00;102162.91;5116498;28;20020;-84
2022/11/27 02:34:44;;;;;;;15.02;4.47;;;;;;;3.88;100.00;102161.34;5116186;28;20106;-84
2022/11/27 02:37:33;;;;;;;23.15;4.75;;;;;;;3.87;100.00;102157.81;5116343;28;20472;-84
2022/11/27 02:40:07;;;;;;;14.03;4.30;;;;;;;3.90;100.00;102162.03;5116022;28;20440;-85
2022/11/27 02:42:41;;;;;;;16.13;4.20;;;;;;;3.87;100.00;102147.06;5117711;28;20043;-84
2022/11/27 02:45:11;;;;;;;13.07;4.20;;;;;;;3.90;100.00;102143.22;5116709;28;20055;-84
2022/11/27 02:47:39;;;;;;;14.98;4.07;;;;;;;3.92;100.00;102143.97;5116313;28;20035;-83
2022/11/27 02:50:11;;;;;;;19.15;3.88;;;;;;;3.94;100.00;102137.47;5099179;28;20160;-84
2022/11/27 02:52:37;;;;;;;12.67;4.10;;;;;;;3.95;100.00;102143.69;5116388;28;20042;-84
2022/11/27 02:55:08;;;;;;;12.55;4.30;;;;;;;3.95;100.00;102157.94;5115789;28;20046;-84
2022/11/27 02:57:36;;;;;;;19.63;4.18;;;;;;;3.96;100.00;102156.97;5116114;28;20127;-84
2022/11/27 03:00:03;;;;;;;15.85;4.07;;;;;;;4.00;100.00;102163.75;5099402;28;20027;-83
2022/11/27 03:02:34;;;;;;;12.40;4.15;;;;;;;4.03;100.00;102163.47;5116006;28;20077;-84
2022/11/27 03:05:03;;;;;;;15.30;4.23;;;;;;;4.03;100.00;102163.47;5116129;28;20051;-84
2022/11/27 03:07:40;;;;;;;14.15;4.20;;;;;;;4.08;100.00;102160.38;5116907;27;20156;-84
2022/11/27 03:10:16;;;;;;;18.48;4.57;;;;;;;4.11;100.00;102160.09;5115303;28;20027;-84
2022/11/27 03:12:42;;;;;;;13.57;3.97;;;;;;;4.14;100.00;102164.34;5116053;28;20023;-84
2022/11/27 03:15:08;;;;;;;9.80;3.30;;;;;;;4.17;100.00;102145.25;5115711;28;20483;-84
2022/11/27 03:17:39;;;;;;;12.82;3.67;;;;;;;4.21;100.00;102143.97;5115105;28;20024;-84
2022/11/27 03:20:20;;;;;;;14.27;3.80;;;;;;;4.21;100.00;102142.13;5115878;28;20039;-84
2022/11/27 03:22:45;;;;;;;10.98;3.60;;;;;;;4.26;100.00;102144.38;5115968;28;20038;-84
2022/11/27 03:25:11;;;;;;;11.67;3.60;;;;;;;4.30;100.00;102145.81;5116812;28;20031;-84
2022/11/27 03:27:46;;;;;;;13.57;3.42;;;;;;;4.33;100.00;102142.81;5115488;28;20371;-84
2022/11/27 03:30:12;;;;;;;13.35;2.97;;;;;;;4.35;100.00;102140.00;5115505;28;20478;-84
2022/11/27 03:32:38;;;;;;;12.10;2.83;;;;;;;4.36;100.00;102144.38;5081701;28;20037;-84
2022/11/27 03:35:08;;;;;;;10.75;3.55;;;;;;;4.41;100.00;102138.59;5116751;28;20027;-84
2022/11/27 03:37:34;;;;;;;13.63;3.35;;;;;;;4.41;100.00;102134.03;5115266;28;20034;-84
2022/11/27 03:40:00;;;;;;;10.80;2.90;;;;;;;4.44;100.00;102130.22;5097575;28;20039;-84
2022/11/27 03:42:32;;;;;;;11.85;2.85;;;;;;;4.46;100.00;102123.72;5115321;28;20063;-84
2022/11/27 03:45:26;;;;;;;7.80;2.53;;;;;;;4.46;100.00;102109.41;5115471;28;20110;-84
2022/11/27 03:48:26;;;;;;;7.70;2.70;;;;;;;4.49;100.00;102107.31;5116690;28;20023;-84
2022/11/27 03:51:07;;;;;;;8.10;3.00;;;;;;;4.48;100.00;102107.47;5115957;28;20051;-84
2022/11/27 03:54:11;;;;;;;10.48;3.00;;;;;;;4.49;100.00;102119.91;5116394;28;20122;-84
2022/11/27 03:56:42;;;;;;;9.38;2.72;;;;;;;4.50;100.00;102119.78;5114950;28;20036;-84
2022/11/27 03:59:14;;;;;;;9.57;2.80;;;;;;;4.53;100.00;102110.53;5115132;28;20032;-84
2022/11/27 04:01:42;;;;;;;12.25;2.90;;;;;;;4.53;100.00;102111.41;5115106;28;20131;-84
2022/11/27 04:04:08;;;;;;;11.20;3.15;;;;;;;4.55;100.00;102111.28;5114834;28;20392;-84
2022/11/27 04:06:33;;;;;;;8.10;2.70;;;;;;;4.57;100.00;102115.47;5114784;28;20031;-84
2022/11/27 04:08:59;;;;;;;12.13;3.00;;;;;;;4.59;100.00;102120.72;5114344;28;20444;-84
2022/11/27 04:11:24;;;;;;;7.18;2.55;;;;;;;4.60;100.00;102122.41;5114606;28;20269;-84
2022/11/27 04:13:51;;;;;;;6.83;2.20;;;;;;;4.60;100.00;102126.97;5097797;28;20031;-84
2022/11/27 04:16:17;;;;;;;8.70;2.25;;;;;;;4.62;100.00;102125.84;5115898;28;20464;-84
2022/11/27 04:18:42;;;;;;;9.52;2.25;;;;;;;4.63;100.00;102132.88;5097508;28;20127;-84
2022/11/27 04:21:08;;;;;;;8.10;2.70;;;;;;;4.63;100.00;102130.19;5097561;28;20031;-83
2022/11/27 04:23:34;;;;;;;7.47;2.20;;;;;;;4.64;100.00;102133.75;5097493;28;20039;-84
2022/11/27 04:25:59;;;;;;;6.95;2.47;;;;;;;4.65;100.00;102130.03;5097865;28;20031;-84
2022/11/27 04:28:24;;;;;;;5.87;2.30;;;;;;;4.65;100.00;102130.03;5113367;28;20392;-84
2022/11/27 04:30:51;;;;;;;7.40;1.97;;;;;;;4.65;100.00;102114.78;5114078;28;20027;-83
2022/11/27 04:33:17;;;;;;;6.45;2.25;;;;;;;4.64;100.00;102125.69;5115521;28;20035;-84
2022/11/27 04:35:43;;;;;;;5.03;1.90;;;;;;;4.62;100.00;102117.75;5114043;28;20543;-84
2022/11/27 04:38:08;;;;;;;10.15;2.67;;;;;;;4.63;100.00;102119.44;5114129;28;20028;-84
2022/11/27 04:40:34;;;;;;;5.63;2.60;;;;;;;4.63;100.00;102127.50;5114806;28;20361;-84
2022/11/27 04:42:59;;;;;;;10.97;2.43;;;;;;;4.61;100.00;102124.13;5097347;28;20039;-84
2022/11/27 04:45:24;;;;;;;9.40;2.90;;;;;;;4.63;100.00;102114.06;5096941;28;20343;-83
2022/11/27 04:47:50;;;;;;;7.03;2.77;;;;;;;4.65;100.00;102116.59;5114046;28;20039;-83
2022/11/27 04:50:15;;;;;;;6.53;2.65;;;;;;;4.66;100.00;102115.63;5096399;28;20478;-84
2022/11/27 04:52:41;;;;;;;9.40;2.50;;;;;;;4.65;100.00;102114.78;5096779;28;20039;-84
2022/11/27 04:55:06;;;;;;;8.83;2.60;;;;;;;4.66;100.00;102097.63;5079691;28;20079;-84
2022/11/27 04:57:32;;;;;;;10.10;2.60;;;;;;;4.66;100.00;102103.00;5096540;28;20451;-84
2022/11/27 04:59:57;;;;;;;7.20;2.25;;;;;;;4.66;100.00;102094.13;5096699;28;20031;-84
2022/11/27 05:02:23;;;;;;;7.17;2.37;;;;;;;4.68;100.00;102089.41;5113856;28;20072;-84
2022/11/27 05:04:48;;;;;;;6.10;2.27;;;;;;;4.72;100.00;102091.69;5113662;28;20460;-84
2022/11/27 05:07:14;;;;;;;8.83;2.97;;;;;;;4.72;100.00;102086.31;5096565;28;20035;-84
2022/11/27 05:09:39;;;;;;;7.72;2.17;;;;;;;4.76;100.00;102078.81;5079044;28;20297;-84
2022/11/27 05:12:05;;;;;;;7.67;2.23;;;;;;;4.77;100.00;102075.13;5096519;28;20020;-84
2022/11/27 05:14:30;;;;;;;11.23;2.53;;;;;;;4.78;99.94;102066.03;5096449;28;20071;-84
2022/11/27 05:16:57;;;;;;;9.40;2.40;;;;;;;4.82;100.00;102072.81;5096111;28;20120;-84
2022/11/27 05:19:25;;;;;;;10.10;2.42;;;;;;;4.82;99.96;102066.63;5113302;28;20040;-84
2022/11/27 05:21:51;;;;;;;7.13;2.87;;;;;;;4.85;99.41;102061.78;5113340;28;20020;-84
2022/11/27 05:24:19;;;;;;;7.38;2.78;;;;;;;4.85;99.57;102060.94;5114619;28;20032;-84
2022/11/27 05:26:45;;;;;;;7.72;2.22;;;;;;;4.88;99.37;102066.84;5113249;28;20028;-84
2022/11/27 05:29:11;;;;;;;7.47;2.42;;;;;;;4.88;99.19;102066.84;5113163;28;20064;-83
2022/11/27 05:31:36;;;;;;;9.10;2.40;;;;;;;4.89;99.27;102060.50;5113118;28;20023;-84
2022/11/27 05:34:02;;;;;;;9.80;2.40;;;;;;;4.88;99.17;102060.63;5113170;28;20042;-84
2022/11/27 05:36:28;;;;;;;6.50;2.03;;;;;;;4.89;98.93;102062.34;5113175;28;20031;-83
2022/11/27 05:38:54;;;;;;;8.27;2.20;;;;;;;4.88;98.79;102052.56;5112049;28;20138;-85
2022/11/27 05:41:19;;;;;;;7.97;2.57;;;;;;;4.87;98.80;102051.72;5112746;28;20067;-84
2022/11/27 05:43:45;;;;;;;9.30;2.50;;;;;;;4.86;98.84;102051.88;5079010;28;20031;-84
2022/11/27 05:46:13;;;;;;;8.53;2.20;;;;;;;4.84;98.84;102052.03;5113369;28;20024;-84
2022/11/27 05:48:38;;;;;;;5.30;2.17;;;;;;;4.85;99.20;102034.03;5095717;28;20039;-84
2022/11/27 05:51:06;;;;;;;7.65;2.10;;;;;;;4.85;99.18;102028.66;5114148;28;20055;-84
2022/11/27 05:53:31;;;;;;;8.73;2.25;;;;;;;4.85;99.23;102029.50;5112878;28;20093;-84
2022/11/27 05:56:09;;;;;;;7.75;2.22;;;;;;;4.92;98.95;102027.06;5113209;28;20027;-84
2022/11/27 05:58:35;;;;;;;9.77;2.20;;;;;;;4.88;99.07;102012.22;5112862;28;20034;-84
2022/11/27 06:01:01;;;;;;;8.00;2.10;;;;;;;4.87;98.55;102006.00;5095930;28;20038;-84
2022/11/27 06:03:27;;;;;;;8.30;2.38;;;;;;;4.88;98.51;102018.44;5112601;28;20031;-84
2022/11/27 06:05:53;;;;;;;5.78;2.20;;;;;;;4.88;98.46;102023.81;5113601;28;20039;-84
2022/11/27 06:08:18;;;;;;;9.27;2.30;;;;;;;4.87;98.68;102018.59;5112460;28;20471;-84
2022/11/27 06:10:46;;;;;;;7.20;1.88;;;;;;;4.88;98.65;102015.75;5095102;28;20034;-83
2022/11/27 06:13:12;;;;;;;9.27;2.03;;;;;;;4.87;98.38;102014.09;5095955;28;20365;-84
2022/11/27 06:15:38;;;;;;;6.63;2.08;;;;;;;4.87;98.66;102013.22;5095727;28;20083;-84
2022/11/27 06:18:04;;;;;;;6.10;2.10;;;;;;;4.86;98.88;102017.75;5113273;28;20023;-84
2022/11/27 06:20:30;;;;;;;5.97;1.73;;;;;;;4.84;99.58;102009.00;5112577;28;20035;-84
2022/11/27 06:22:56;;;;;;;12.80;2.40;;;;;;;4.84;99.22;102009.00;5113674;28;20036;-84
2022/11/27 06:25:22;;;;;;;9.05;2.40;;;;;;;4.86;99.11;102009.69;5112635;28;20027;-84
2022/11/27 06:27:47;;;;;;;7.33;2.10;;;;;;;4.86;99.37;102003.47;5112947;28;20042;-84
2022/11/27 06:30:13;;;;;;;7.90;2.35;;;;;;;4.86;99.61;101998.09;5112457;28;20467;-84
2022/11/27 06:32:38;;;;;;;7.87;2.13;;;;;;;4.87;99.61;102007.84;5112414;28;20038;-84
2022/11/27 06:35:04;;;;;;;8.43;2.67;;;;;;;4.85;100.00;102002.59;5078720;28;20490;-84
2022/11/27 06:37:30;;;;;;;6.32;1.90;;;;;;;4.83;100.00;102003.78;5112507;28;20105;-83
2022/11/27 06:39:55;;;;;;;6.27;2.20;;;;;;;4.81;100.00;102011.97;5095019;28;20028;-83
2022/11/27 06:42:21;;;;;;;7.43;1.87;;;;;;;4.76;100.00;102013.44;5112445;28;20114;-82
2022/11/27 06:44:47;;;;;;;9.02;2.42;;;;;;;4.71;100.00;102003.97;5095512;28;20028;-83
2022/11/27 06:47:12;;;;;;;7.47;2.07;;;;;;;4.70;100.00;102015.69;5112632;28;20035;-83
2022/11/27 06:49:37;;;;;;;9.13;2.83;;;;;;;4.64;100.00;102007.41;5095098;28;20117;-83
2022/11/27 06:52:03;;;;;;;6.43;2.28;;;;;;;4.59;100.00;102009.66;5095344;28;20036;-86
2022/11/27 06:54:28;;;;;;;7.60;2.30;;;;;;;4.57;100.00;102002.59;5116347;28;20032;-83
2022/11/27 06:56:54;;;;;;;9.73;2.13;;;;;;;4.65;100.00;101995.63;5098781;28;20028;-82
2022/11/27 06:59:19;;;;;;;10.67;2.40;;;;;;;4.63;100.00;101992.25;5099201;28;20053;-83
2022/11/27 07:01:45;;;;;;;6.07;2.35;;;;;;;4.60;100.00;101984.50;5115978;28;20035;-83
2022/11/27 07:04:12;;;;;;;9.17;2.30;;;;;;;4.60;100.00;101984.50;5117331;28;20071;-83
2022/11/27 07:06:38;;;;;;;10.45;2.10;;;;;;;4.59;100.00;101985.47;5115784;28;20024;-84
2022/11/27 07:09:05;;;;;;;7.13;2.15;;;;;;;4.57;100.00;101980.25;5116571;28;20434;-83
2022/11/27 07:11:31;;;;;;;7.43;2.30;;;;;;;4.57;100.00;101970.31;5115833;28;20028;-83
2022/11/27 07:14:02;;;;;;;12.68;2.38;;;;;;;4.61;100.00;101972.75;5098784;28;20084;-83
2022/11/27 07:16:30;;;;;;;9.48;2.40;;;;;;;4.57;100.00;101962.25;5117111;28;20035;-82
2022/11/27 07:18:59;;;;;;;7.63;2.08;;;;;;;4.59;100.00;101955.91;5117472;28;20467;-83
2022/11/27 07:21:25;;;;;;;7.65;2.53;;;;;;;4.59;100.00;101955.91;5117120;28;20106;-83
2022/11/27 07:23:50;;;;;;;8.10;2.38;;;;;;;4.60;100.00;101946.84;5115133;28;20110;-83
2022/11/27 07:26:22;;;;;;;3.97;1.77;;;;;;;4.62;100.00;101948.41;5098033;28;20126;-83
2022/11/27 07:28:48;;;;;;;7.88;2.70;;;;;;;4.62;100.00;101940.34;5115241;28;20015;-83
2022/11/27 07:31:19;;;;;;;6.57;2.00;;;;;;;4.68;100.00;101950.50;5098356;28;20486;-82
2022/11/27 07:33:45;;;;;;;8.63;2.55;;;;;;;4.69;100.00;101944.09;5115635;28;20032;-83
2022/11/27 07:36:14;;;;;;;6.97;2.10;;;;;;;4.71;100.00;101939.44;5115291;28;20034;-83
2022/11/27 07:38:39;;;;;;;7.23;2.13;;;;;;;4.72;100.00;101935.75;5116794;28;20031;-82
2022/11/27 07:41:06;;;;;;;11.60;2.80;;;;;;;4.75;100.00;101937.28;5115119;28;20479;-82
2022/11/27 07:43:32;;;;;;;12.87;2.93;;;;;;;4.77;100.00;101932.63;5116548;28;20088;-83
2022/11/27 07:46:02;;;;;;;8.50;2.50;;;;;;;4.79;100.00;101932.47;5116747;28;20032;-83
2022/11/27 07:48:28;;;;;;;7.90;2.65;;;;;;;4.82;100.00;101937.53;5116585;28;20035;-83
2022/11/27 07:50:53;;;;;;;9.93;2.60;;;;;;;4.83;100.00;101923.94;5114624;28;20048;-83
2022/11/27 07:53:18;;;;;;;5.87;2.67;;;;;;;4.84;100.00;101914.88;5114826;28;20031;-83
2022/11/27 07:55:44;;;;;;;7.68;2.35;;;;;;;4.86;100.00;101902.13;5116068;28;20714;-83
2022/11/27 07:58:09;;;;;;;6.07;2.37;;;;;;;4.89;100.00;101896.44;5114925;28;20494;-82
2022/11/27 08:00:35;;;;;;;10.60;3.17;;;;;;;4.91;100.00;101899.81;5116224;28;20039;-82
2022/11/27 08:03:01;;;;;;;8.57;2.83;;;;;;;4.91;100.00;101899.81;5114209;28;20027;-83
2022/11/27 08:05:26;;;;;;;9.80;2.80;;;;;;;4.92;100.00;101897.97;5097849;28;20460;-82
2022/11/27 08:07:52;;;;;;;9.77;2.92;;;;;;;4.92;100.00;101900.66;5098145;28;20083;-83
2022/11/27 08:10:17;;;;;;;12.87;2.87;;;;;;;4.94;100.00;101893.28;5097236;28;20153;-83
2022/11/27 08:12:43;;;;;;;9.17;2.70;;;;;;;4.98;100.00;101891.97;5097680;28;20046;-82
2022/11/27 08:15:09;;;;;;;12.60;3.30;;;;;;;4.97;100.00;101894.84;5097616;28;20035;-83
2022/11/27 08:17:35;;;;;;;6.53;2.70;;;;;;;4.97;100.00;101892.13;5116035;28;20027;-83
2022/11/27 08:20:00;;;;;;;9.73;3.23;;;;;;;4.99;100.00;101898.19;5097538;28;20031;-83
2022/11/27 08:22:26;;;;;;;11.20;3.60;;;;;;;5.01;100.00;101889.00;5114470;28;20773;-83
2022/11/27 08:24:51;;;;;;;7.47;2.80;;;;;;;5.03;100.00;101892.34;5115765;28;20137;-83
2022/11/27 08:27:17;;;;;;;7.10;2.93;;;;;;;5.07;100.00;101895.59;5097429;28;20498;-82
2022/11/27 08:29:43;;;;;;;8.77;3.47;;;;;;;5.07;100.00;101892.91;5115140;28;20114;-82
2022/11/27 08:32:08;;;;;;;11.07;3.80;;;;;;;5.05;100.00;101892.22;5114248;28;20185;-82
2022/11/27 08:34:34;;;;;;;7.68;3.10;;;;;;;5.05;100.00;101885.00;5097298;28;20040;-82
2022/11/27 08:36:59;;;;;;;12.00;3.55;;;;;;;5.06;100.00;101897.47;5113859;28;20028;-82
2022/11/27 08:39:25;;;;;;;15.80;3.63;;;;;;;5.07;100.00;101895.59;5113910;28;20023;-82
2022/11/27 08:41:52;;;;;;;12.75;3.92;;;;;;;5.07;100.00;101888.38;5097110;28;20529;-82
2022/11/27 08:44:17;;;;;;;10.50;3.50;;;;;;;5.08;100.00;101892.75;5113942;28;20471;-83
2022/11/27 08:46:43;;;;;;;8.77;3.53;;;;;;;5.09;100.00;101898.97;5115264;28;20039;-83
2022/11/27 08:49:08;;;;;;;9.00;3.63;;;;;;;5.11;100.00;101888.94;5114899;28;20031;-83
2022/11/27 08:51:33;;;;;;;11.10;3.80;;;;;;;5.14;100.00;101896.69;5080512;28;20030;-84
2022/11/27 08:53:59;;;;;;;9.93;3.78;;;;;;;5.22;100.00;101896.75;5113911;28;20822;-83
2022/11/27 08:56:25;;;;;;;10.03;3.93;;;;;;;5.21;100.00;101904.97;5114723;28;20457;-83
2022/11/27 08:58:51;;;;;;;8.93;3.73;;;;;;;5.20;100.00;101898.75;5096773;28;20027;-82
2022/11/27 09:01:20;;;;;;;8.57;3.50;;;;;;;5.21;100.00;101903.16;5113910;28;20285;-83
2022/11/27 09:03:48;;;;;;;11.02;3.95;;;;;;;5.20;100.00;101898.75;5113311;28;20554;-83
2022/11/27 09:06:17;;;;;;;12.98;4.30;;;;;;;5.24;100.00;101896.59;5114900;28;20035;-83
2022/11/27 09:08:43;;;;;;;16.65;4.45;;;;;;;5.25;100.00;101904.50;5113421;28;20654;-83
2022/11/27 09:11:10;;;;;;;11.55;4.40;;;;;;;5.25;100.00;101900.97;5112971;28;20043;-83
2022/11/27 09:13:36;;;;;;;8.77;4.05;;;;;;;5.30;100.00;101893.31;5096207;28;20024;-83
2022/11/27 09:16:07;;;;;;;10.73;4.35;;;;;;;5.32;100.00;101895.84;5112706;28;20474;-83
2022/11/27 09:18:33;;;;;;;11.57;4.40;;;;;;;5.33;100.00;101898.38;5113532;28;20108;-83
2022/11/27 09:21:04;;;;;;;10.87;4.33;;;;;;;5.34;100.00;101897.34;5096536;28;20035;-83
2022/11/27 09:23:29;;;;;;;9.05;4.75;;;;;;;5.34;100.00;101893.81;5115173;28;20031;-83
2022/11/27 09:25:59;;;;;;;11.03;4.57;;;;;;;5.33;100.00;101898.38;5079398;28;20027;-83
2022/11/27 09:28:25;;;;;;;12.02;4.90;;;;;;;5.29;100.00;101894.28;5113126;28;20112;-83
2022/11/27 09:30:57;;;;;;;10.73;4.80;;;;;;;5.32;100.00;101888.59;5114412;28;20059;-83
2022/11/27 09:33:24;;;;;;;9.90;4.75;;;;;;;5.33;100.00;101894.81;5113312;28;20284;-83
2022/11/27 09:35:49;;;;;;;13.35;4.50;;;;;;;5.33;100.00;101894.81;5114602;28;20036;-83
2022/11/27 09:38:15;;;;;;;10.80;5.00;;;;;;;5.34;100.00;101897.34;5112956;28;20028;-83
2022/11/27 09:40:49;;;;;;;15.68;4.97;;;;;;;5.33;100.00;101893.00;5095803;28;20042;-83
2022/11/27 09:43:15;;;;;;;12.55;5.30;;;;;;;5.35;100.00;101887.44;5112912;28;20031;-83
2022/11/27 09:45:49;;;;;;;17.80;5.82;;;;;;;5.43;100.00;101890.19;5096259;28;20039;-83
2022/11/27 09:48:21;;;;;;;9.82;4.85;;;;;;;5.51;100.00;101884.06;5114124;28;20036;-83
2022/11/27 09:50:52;;;;;;;12.85;5.93;;;;;;;5.58;100.00;101879.69;5112618;28;20051;-83
2022/11/27 09:53:36;;;;;;;12.35;5.68;;;;;;;5.67;100.00;101869.84;5112963;28;20059;-83
2022/11/27 09:56:07;;;;;;;13.50;5.38;;;;;;;5.73;100.00;101872.75;5112800;28;20081;-83
2022/11/27 09:58:48;;;;;;;13.48;5.68;;;;;;;5.79;100.00;101873.97;5112847;28;20122;-83
2022/11/27 10:01:16;;;;;;;9.45;5.07;;;;;;;5.83;100.00;101861.03;5112823;28;20028;-82
2022/11/27 10:03:44;;;;;;;11.68;5.40;;;;;;;5.87;100.00;101859.72;5112692;28;20028;-83
2022/11/27 10:06:28;;;;;;;11.82;5.72;;;;;;;5.90;100.00;101854.84;5114042;28;20118;-83
2022/11/27 10:09:19;;;;;;;12.40;5.80;;;;;;;5.97;100.00;101855.09;5113995;28;20102;-83
2022/11/27 10:11:58;;;;;;;10.88;5.63;;;;;;;6.05;100.00;101847.03;5073772;28;20040;-83
2022/11/27 10:14:52;;;;;;;10.63;5.22;;;;;;;6.09;100.00;101844.88;5112392;28;20023;-83
2022/11/27 10:17:28;;;;;;;9.65;4.70;;;;;;;6.14;100.00;101847.91;5112566;28;20031;-83
2022/11/27 10:20:00;;;;;;;12.95;5.70;;;;;;;6.21;100.00;101837.34;5112157;28;20118;-82
2022/11/27 10:22:59;;;;;;;9.18;5.35;;;;;;;6.26;100.00;101824.22;5114187;28;20032;-83
2022/11/27 10:25:41;;;;;;;10.23;5.10;;;;;;;6.29;100.00;101816.66;5112079;28;20104;-83
2022/11/27 10:28:43;;;;;;;12.90;5.68;;;;;;;6.36;100.00;101814.13;5110038;28;20028;-83
2022/11/27 10:31:23;;;;;;;10.43;5.00;;;;;;;6.40;100.00;101823.59;5117541;27;20032;-82
2022/11/27 10:33:54;;;;;;;10.35;5.03;;;;;;;6.46;100.00;101816.69;5112895;28;20074;-83
2022/11/27 10:36:31;;;;;;;12.85;5.20;;;;;;;6.47;100.00;101819.22;5113087;28;20031;-83
2022/11/27 10:39:02;;;;;;;14.35;5.43;;;;;;;6.45;100.00;101807.78;5112156;28;20054;-83
2022/11/27 10:41:33;;;;;;;9.80;4.57;;;;;;;6.49;100.00;101805.59;5115683;28;20456;-83
2022/11/27 10:44:11;;;;;;;8.93;5.15;;;;;;;6.57;100.00;101807.44;5116285;28;20062;-83
2022/11/27 10:46:38;;;;;;;10.68;5.30;;;;;;;6.60;100.00;101799.88;5116234;28;20123;-83
2022/11/27 10:49:04;;;;;;;12.55;5.07;;;;;;;6.62;100.00;101797.84;5115796;28;20482;-83
2022/11/27 10:51:35;;;;;;;11.95;4.90;;;;;;;6.62;100.00;101795.16;5116253;28;20114;-83
2022/11/27 10:54:02;;;;;;;8.70;4.80;;;;;;;6.57;100.00;101793.97;5116238;28;20035;-83
2022/11/27 10:56:48;;;;;;;11.05;5.07;;;;;;;6.50;100.00;101791.94;5117087;28;20024;-83
2022/11/27 10:59:39;;;;;;;11.75;4.80;;;;;;;6.52;100.00;101782.84;5115991;28;20058;-83
2022/11/27 11:02:07;;;;;;;9.13;4.50;;;;;;;6.50;100.00;101775.75;5116034;28;20035;-83
2022/11/27 11:04:34;;;;;;;11.05;4.82;;;;;;;6.52;100.00;101774.75;5115929;28;20529;-83
2022/11/27 11:07:00;;;;;;;10.48;5.05;;;;;;;6.48;100.00;101767.00;5099180;28;20027;-83
2022/11/27 11:09:31;;;;;;;11.10;4.60;;;;;;;6.43;100.00;101769.34;5115165;28;20039;-83
2022/11/27 11:12:19;;;;;;;7.82;4.30;;;;;;;6.50;100.00;101769.53;5115852;28;20467;-83
2022/11/27 11:14:52;;;;;;;11.13;5.23;;;;;;;6.52;100.00;101762.09;5117115;28;20102;-83
2022/11/27 11:17:24;;;;;;;11.20;4.85;;;;;;;6.57;100.00;101751.69;5116946;28;20472;-83
2022/11/27 11:19:50;;;;;;;10.98;5.18;;;;;;;6.62;100.00;101746.63;5115688;28;20111;-83
2022/11/27 11:22:16;;;;;;;14.10;5.17;;;;;;;6.62;100.00;101743.09;5116818;28;20423;-83
2022/11/27 11:24:51;;;;;;;11.45;4.95;;;;;;;6.64;100.00;101733.81;5116718;27;20456;-83
2022/11/27 11:27:29;;;;;;;7.97;4.47;;;;;;;6.68;100.00;101731.63;5115760;28;20027;-83
2022/11/27 11:30:00;;;;;;;10.75;4.72;;;;;;;6.67;100.00;101721.84;5116637;28;20380;-83
2022/11/27 11:32:33;;;;;;;10.43;5.00;;;;;;;6.73;100.00;101728.41;5115286;28;20103;-83